createdAt,value
2022-12-16T00:46:03.345Z,62.10
2022-12-16T00:48:32.082Z,62.20
2022-12-16T00:51:00.642Z,62.20
2022-12-16T00:53:29.680Z,62.30
2022-12-16T00:56:05.275Z,62.40
2022-12-16T00:58:33.823Z,62.30
2022-12-16T01:45:34.096Z,59.50
2022-12-16T01:48:13.604Z,59.50
2022-12-16T01:50:42.069Z,59.60
2022-12-16T01:53:10.483Z,59.50
2022-12-16T01:55:43.606Z,59.50
2022-12-16T01:58:17.506Z,59.30
2022-12-16T02:45:30.821Z,59.00
2022-12-16T02:47:59.328Z,58.90
2022-12-16T02:50:34.104Z,59.30
2022-12-16T02:53:03.931Z,58.90
2022-12-16T02:55:44.339Z,58.90
2022-12-16T02:58:18.869Z,58.90
2022-12-16T03:48:08.330Z,58.40
2022-12-16T03:50:38.188Z,58.60
2022-12-16T03:53:08.001Z,58.60
2022-12-16T03:55:36.945Z,58.50
2022-12-16T03:58:05.375Z,58.70
2022-12-16T04:46:16.276Z,58.30
2022-12-16T04:49:02.197Z,58.50
2022-12-16T04:51:48.011Z,58.50
2022-12-16T04:54:33.662Z,58.60
2022-12-16T04:57:19.350Z,58.50
2022-12-16T05:31:20.434Z,58.10
2022-12-16T05:34:06.430Z,58.30
2022-12-16T05:36:52.710Z,58.10
2022-12-16T05:39:38.778Z,58.00
2022-12-16T05:42:24.579Z,58.30
2022-12-16T05:45:10.576Z,58.30
2022-12-16T05:47:59.172Z,58.30
2022-12-16T05:50:45.083Z,58.20
2022-12-16T05:53:31.463Z,58.10
2022-12-16T05:56:17.840Z,58.00
2022-12-16T05:59:03.800Z,57.70
2022-12-16T06:01:49.735Z,57.70
2022-12-16T06:04:36.917Z,57.70
2022-12-16T06:07:23.170Z,57.50
2022-12-16T06:10:08.975Z,57.70
2022-12-16T06:12:54.633Z,57.60
2022-12-16T06:15:40.266Z,58.00
2022-12-16T06:18:25.958Z,57.40
2022-12-16T06:21:13.202Z,57.40
2022-12-16T06:23:59.161Z,57.20
2022-12-16T06:26:44.755Z,57.60
2022-12-16T06:29:30.695Z,59.50
2022-12-16T06:32:16.388Z,59.40
2022-12-16T06:35:02.064Z,59.20
2022-12-16T06:37:49.266Z,58.80
2022-12-16T06:40:35.417Z,58.50
2022-12-16T06:43:21.134Z,58.10
2022-12-16T06:46:07.123Z,61.80
2022-12-16T06:48:53.198Z,59.50
2022-12-16T06:51:39.069Z,59.10
2022-12-16T06:54:26.553Z,58.40
2022-12-16T06:57:12.637Z,58.00
2022-12-16T06:59:58.540Z,58.10
2022-12-16T07:02:44.390Z,58.00
2022-12-16T07:05:30.187Z,58.40
2022-12-16T07:08:16.143Z,58.70
2022-12-16T07:11:16.092Z,58.90
2022-12-16T07:14:02.641Z,59.00
2022-12-16T07:16:48.840Z,59.00
2022-12-16T07:19:34.801Z,59.10
2022-12-16T07:22:21.013Z,59.00
2022-12-16T07:25:06.975Z,59.10
2022-12-16T07:27:54.811Z,59.20
2022-12-16T07:30:40.389Z,59.10
2022-12-16T07:33:26.431Z,59.00
2022-12-16T07:36:11.959Z,59.10
2022-12-16T07:38:58.017Z,59.80
2022-12-16T07:41:44.125Z,60.00
2022-12-16T07:44:31.360Z,59.70
2022-12-16T07:47:17.422Z,60.50
2022-12-16T07:50:02.981Z,59.80
2022-12-16T07:52:49.011Z,59.70
2022-12-16T07:55:35.041Z,59.50
2022-12-16T07:58:20.904Z,59.20
2022-12-16T08:47:08.586Z,59.00
2022-12-16T08:50:03.194Z,59.10
2022-12-16T08:52:49.210Z,59.60
2022-12-16T08:55:35.361Z,60.00
2022-12-16T08:58:21.063Z,60.20
2022-12-16T09:01:08.020Z,61.10
2022-12-16T09:32:16.820Z,62.00
2022-12-16T09:35:02.419Z,62.30
2022-12-16T09:37:48.300Z,62.90
2022-12-16T09:40:36.418Z,62.10
2022-12-16T09:43:31.707Z,62.00
2022-12-16T09:46:27.668Z,62.50
2022-12-16T09:49:28.156Z,62.60
2022-12-16T09:52:18.367Z,61.50
2022-12-16T09:55:06.328Z,61.10
2022-12-16T09:57:55.562Z,61.00
2022-12-16T10:00:43.965Z,59.20
2022-12-16T10:03:45.264Z,58.20
2022-12-16T10:06:51.586Z,59.00
2022-12-16T10:09:45.454Z,59.40
2022-12-16T10:12:42.865Z,59.70
2022-12-16T10:15:42.883Z,60.30
2022-12-16T10:18:50.753Z,60.70
2022-12-16T10:21:46.695Z,61.60
2022-12-16T10:24:45.079Z,61.80
2022-12-16T10:27:34.227Z,63.50
2022-12-16T10:30:21.906Z,64.40
2022-12-16T10:33:09.672Z,64.40
2022-12-16T10:36:01.089Z,64.40
2022-12-16T10:39:07.642Z,65.00
2022-12-16T10:41:54.171Z,65.30
2022-12-16T10:44:44.371Z,65.90
2022-12-16T10:47:30.705Z,65.80
2022-12-16T10:50:17.302Z,65.10
2022-12-16T10:53:11.138Z,64.70
2022-12-16T10:56:13.632Z,64.50
2022-12-16T10:59:10.406Z,66.20
2022-12-16T11:01:56.503Z,67.80
2022-12-16T11:04:56.088Z,66.10
2022-12-16T11:07:55.940Z,65.80
2022-12-16T11:11:01.584Z,66.10
2022-12-16T11:13:53.608Z,66.60
2022-12-16T11:16:43.720Z,67.60
2022-12-16T11:19:39.575Z,66.20
2022-12-16T11:22:31.912Z,67.10
2022-12-16T11:25:31.830Z,66.90
2022-12-16T11:28:23.785Z,62.60
2022-12-16T11:31:15.806Z,64.10
2022-12-16T11:34:02.704Z,64.00
2022-12-16T11:36:51.121Z,65.30
2022-12-16T11:39:42.169Z,66.50
2022-12-16T11:42:52.644Z,66.10
2022-12-16T11:45:40.024Z,64.70
2022-12-16T11:48:37.603Z,62.70
2022-12-16T11:51:27.439Z,61.90
2022-12-16T11:54:24.321Z,62.50
2022-12-16T11:57:10.310Z,64.90
2022-12-16T12:00:00.814Z,66.20
2022-12-16T12:02:53.430Z,66.50
2022-12-16T12:05:52.064Z,66.60
2022-12-16T12:08:44.181Z,66.20
2022-12-16T12:11:37.835Z,65.70
2022-12-16T12:14:32.578Z,65.40
2022-12-16T12:17:34.677Z,61.80
2022-12-16T12:20:45.544Z,60.20
2022-12-16T12:23:40.713Z,62.90
2022-12-16T12:26:32.077Z,62.90
2022-12-16T12:29:26.241Z,63.50
2022-12-16T12:32:19.300Z,65.10
2022-12-16T12:35:18.345Z,67.00
2022-12-16T12:38:14.418Z,66.90
2022-12-16T12:41:25.316Z,67.60
2022-12-16T12:44:24.764Z,64.60
2022-12-16T12:47:16.569Z,64.40
2022-12-16T12:50:12.884Z,64.80
2022-12-16T12:53:27.942Z,65.00
2022-12-16T12:56:26.570Z,68.40
2022-12-16T12:59:18.377Z,65.40
2022-12-16T13:02:05.486Z,66.20
2022-12-16T13:04:52.697Z,67.30
2022-12-16T13:07:39.162Z,68.30
2022-12-16T13:10:49.931Z,69.10
2022-12-16T13:13:53.702Z,71.30
2022-12-16T13:17:25.233Z,70.20
2022-12-16T13:20:16.009Z,70.50
2022-12-16T13:23:04.105Z,71.30
2022-12-16T13:25:59.413Z,71.30
2022-12-16T13:28:51.513Z,71.60
2022-12-16T13:31:38.128Z,71.60
2022-12-16T13:34:38.776Z,72.00
2022-12-16T13:37:35.803Z,72.00
2022-12-16T13:40:32.197Z,77.10
2022-12-16T13:43:23.310Z,78.00
2022-12-16T13:46:35.601Z,72.90
2022-12-16T13:50:02.641Z,68.10
2022-12-16T13:53:03.721Z,67.30
2022-12-16T13:55:55.965Z,71.80
2022-12-16T13:58:55.357Z,71.40
2022-12-16T14:01:53.546Z,70.20
2022-12-16T14:04:45.194Z,75.10
2022-12-16T14:07:44.426Z,77.50
2022-12-16T14:10:44.520Z,86.40
2022-12-16T14:13:39.480Z,92.90
2022-12-16T14:19:53.152Z,90.90
2022-12-16T14:23:03.177Z,76.20
2022-12-16T14:25:49.978Z,65.80
2022-12-16T14:28:48.791Z,62.00
2022-12-16T14:31:40.158Z,59.50
2022-12-16T14:34:40.118Z,59.30
2022-12-16T14:37:34.384Z,61.30
2022-12-16T14:40:20.917Z,60.80
2022-12-16T14:43:13.191Z,61.70
2022-12-16T14:46:08.532Z,61.20
2022-12-16T14:48:57.325Z,61.50
2022-12-16T14:51:46.242Z,62.00
2022-12-16T14:54:40.687Z,63.20
2022-12-16T14:57:33.187Z,62.80
2022-12-16T15:00:22.816Z,62.40
2022-12-16T15:03:12.816Z,62.60
2022-12-16T15:06:00.607Z,63.20
2022-12-16T15:08:50.361Z,63.60
2022-12-16T15:11:41.044Z,64.00
2022-12-16T15:14:33.811Z,64.00
2022-12-16T15:17:20.335Z,64.20
2022-12-16T15:20:10.481Z,64.60
2022-12-16T15:23:02.396Z,64.60
2022-12-16T15:25:48.283Z,64.70
2022-12-16T15:28:57.166Z,65.00
2022-12-16T15:31:45.326Z,64.40
2022-12-16T15:34:48.861Z,63.50
2022-12-16T15:37:39.633Z,63.40
2022-12-16T15:40:44.099Z,62.30
2022-12-16T15:43:50.882Z,61.20
2022-12-16T15:46:55.632Z,60.90
2022-12-16T15:49:46.813Z,60.50
2022-12-16T15:52:46.717Z,60.40
2022-12-16T15:55:44.481Z,60.50
2022-12-16T15:58:37.374Z,60.50
2022-12-16T16:01:26.019Z,60.20
2022-12-16T16:04:14.264Z,61.80
2022-12-16T16:07:05.910Z,59.80
2022-12-16T16:09:54.892Z,60.60
2022-12-16T16:12:42.452Z,61.70
2022-12-16T16:15:31.444Z,61.00
2022-12-16T16:18:23.429Z,61.80
2022-12-16T16:21:09.687Z,59.40
2022-12-16T16:24:03.779Z,58.40
2022-12-16T16:26:49.463Z,58.70
2022-12-16T16:29:35.380Z,58.70
2022-12-16T16:32:21.244Z,59.20
2022-12-16T16:35:09.665Z,60.50
2022-12-16T16:37:55.237Z,60.00
2022-12-16T16:40:49.958Z,60.40
2022-12-16T16:43:36.685Z,60.30
2022-12-16T16:46:35.799Z,60.60
2022-12-16T16:49:21.781Z,59.70
2022-12-16T16:52:09.059Z,59.40
2022-12-16T16:54:56.529Z,58.70
2022-12-16T16:57:46.920Z,59.00
2022-12-16T17:00:34.842Z,59.30
2022-12-16T17:03:21.554Z,60.30
2022-12-16T17:06:07.837Z,62.20
2022-12-16T17:08:56.745Z,62.00
2022-12-16T17:11:44.745Z,62.00
2022-12-16T17:14:33.143Z,62.30
2022-12-16T17:17:19.148Z,62.50
2022-12-16T17:20:05.244Z,61.80
2022-12-16T17:22:51.086Z,61.50
2022-12-16T17:25:38.676Z,61.40
2022-12-16T17:28:25.099Z,61.10
2022-12-16T17:31:11.000Z,61.00
2022-12-16T17:33:56.646Z,68.80
2022-12-16T17:36:42.558Z,68.60
2022-12-16T17:39:29.447Z,69.40
2022-12-16T17:42:16.798Z,70.40
2022-12-16T17:45:02.660Z,73.10
2022-12-16T17:47:48.554Z,72.70
2022-12-16T17:50:34.448Z,68.40
2022-12-16T17:53:20.181Z,69.10
2022-12-16T17:56:17.233Z,70.00
2022-12-16T17:59:05.927Z,68.20
2022-12-16T18:01:52.004Z,72.50
2022-12-16T18:04:38.191Z,73.00
2022-12-16T18:07:22.998Z,71.80
2022-12-16T18:10:08.542Z,72.70
2022-12-16T18:12:54.412Z,74.70
2022-12-16T18:15:41.657Z,73.80
2022-12-16T18:18:27.431Z,73.00
2022-12-16T18:21:13.574Z,73.80
2022-12-16T18:24:00.786Z,75.10
2022-12-16T18:26:46.659Z,70.10
2022-12-16T18:29:32.624Z,68.60
2022-12-16T18:32:19.771Z,64.00
2022-12-16T18:35:05.385Z,67.30
2022-12-16T18:37:51.406Z,65.40
2022-12-16T18:40:36.418Z,63.20
2022-12-16T18:43:21.987Z,65.00
2022-12-16T18:46:11.689Z,63.70
2022-12-16T18:48:59.122Z,62.50
2022-12-16T18:51:45.417Z,64.60
2022-12-16T18:54:31.166Z,65.40
2022-12-16T18:57:17.612Z,67.70
2022-12-16T19:00:03.483Z,66.80
2022-12-16T19:02:49.453Z,66.60
2022-12-16T19:05:36.382Z,65.60
2022-12-16T19:08:22.186Z,64.90
2022-12-16T19:11:08.224Z,65.50
2022-12-16T19:13:54.160Z,65.70
2022-12-16T19:16:40.270Z,67.50
2022-12-16T19:19:26.287Z,67.50
2022-12-16T19:22:13.235Z,67.40
2022-12-16T19:24:59.232Z,67.30
2022-12-16T19:27:45.230Z,68.00
2022-12-16T19:30:31.473Z,67.40
2022-12-16T19:33:17.489Z,67.60
2022-12-16T19:36:03.405Z,67.80
2022-12-16T19:38:50.711Z,67.40
2022-12-16T19:41:37.116Z,67.20
2022-12-16T19:44:24.034Z,65.60
2022-12-16T19:47:10.074Z,65.80
2022-12-16T19:50:07.560Z,64.80
2022-12-16T19:52:53.896Z,65.00
2022-12-16T19:55:43.615Z,67.00
2022-12-16T19:58:29.448Z,68.00
2022-12-16T20:01:15.414Z,68.70
2022-12-16T20:04:01.492Z,69.10
2022-12-16T20:06:48.982Z,69.50
2022-12-16T20:09:34.902Z,69.60
2022-12-16T20:12:22.399Z,70.00
2022-12-16T20:15:08.017Z,70.50
2022-12-16T20:17:56.074Z,70.80
2022-12-16T20:20:42.418Z,71.30
2022-12-16T20:23:28.402Z,69.10
2022-12-16T20:26:16.333Z,69.90
2022-12-16T20:29:03.938Z,71.00
2022-12-16T20:31:50.973Z,71.00
2022-12-16T20:34:37.505Z,70.60
2022-12-16T20:37:23.836Z,69.40
2022-12-16T20:40:09.972Z,69.10
2022-12-16T20:42:56.325Z,69.60
2022-12-16T20:45:43.899Z,70.20
2022-12-16T20:48:33.783Z,68.90
2022-12-16T20:51:26.524Z,68.30
2022-12-16T20:54:12.973Z,67.80
2022-12-16T20:56:59.007Z,68.70
2022-12-16T20:59:45.150Z,69.00
2022-12-16T21:02:33.260Z,69.30
2022-12-16T21:05:20.121Z,69.70
2022-12-16T21:08:06.279Z,70.30
2022-12-16T21:10:52.053Z,70.60
2022-12-16T21:13:38.550Z,71.00
2022-12-16T21:16:25.885Z,71.10
2022-12-16T21:19:13.219Z,71.30
2022-12-16T21:22:00.349Z,71.60
2022-12-16T21:24:45.965Z,71.10
2022-12-16T21:27:31.756Z,70.20
2022-12-16T21:30:17.851Z,70.30
2022-12-16T21:33:03.817Z,70.20
2022-12-16T21:35:51.492Z,70.30
2022-12-16T21:38:37.564Z,70.30
2022-12-16T21:41:23.439Z,70.20
2022-12-16T21:44:09.691Z,70.10
2022-12-16T21:46:55.760Z,70.20
2022-12-16T21:49:42.318Z,70.10
2022-12-16T21:52:29.540Z,70.10
2022-12-16T21:55:11.780Z,70.10
2022-12-16T21:57:57.933Z,70.00
2022-12-16T22:00:43.780Z,69.80
2022-12-16T22:03:29.499Z,70.10
2022-12-16T22:06:17.526Z,69.90
2022-12-16T22:09:04.830Z,69.80
2022-12-16T22:11:50.867Z,68.60
2022-12-16T22:14:37.421Z,61.70
2022-12-16T22:17:23.546Z,62.50
2022-12-16T22:20:09.445Z,62.00
2022-12-16T22:22:55.225Z,60.00
2022-12-16T22:25:39.821Z,62.30
2022-12-16T22:28:25.830Z,63.30
2022-12-16T22:31:13.805Z,63.70
2022-12-16T22:34:02.071Z,63.90
2022-12-16T22:36:47.959Z,64.40
2022-12-16T22:39:33.922Z,64.70
2022-12-16T22:42:21.250Z,64.30
2022-12-16T22:45:09.531Z,64.80
2022-12-16T22:47:55.179Z,65.00
2022-12-16T22:50:42.290Z,65.10
2022-12-16T22:53:28.446Z,65.20
2022-12-16T22:56:15.198Z,65.40
2022-12-16T22:59:02.271Z,65.60
2022-12-16T23:01:56.961Z,66.40
2022-12-16T23:04:43.418Z,66.40
2022-12-16T23:07:29.328Z,66.10
2022-12-16T23:10:16.194Z,66.50
2022-12-16T23:13:02.139Z,66.60
2022-12-16T23:15:49.331Z,65.80
2022-12-16T23:18:35.343Z,65.90
2022-12-16T23:21:21.630Z,66.10
2022-12-16T23:24:10.785Z,66.30
2022-12-16T23:26:56.810Z,65.90
2022-12-16T23:29:42.890Z,65.80
2022-12-16T23:48:19.949Z,66.20
2022-12-16T23:51:06.215Z,66.10
2022-12-16T23:53:52.015Z,67.80
2022-12-16T23:56:38.190Z,67.80
2022-12-16T23:59:24.035Z,67.80
